createdAt,value
2018-06-09T17:39:15.191Z,60.00
2018-06-09T17:41:43.722Z,60.10
2018-06-09T17:44:12.259Z,60.10
2018-06-09T17:46:40.876Z,60.10
2018-06-09T17:49:09.745Z,60.20
2018-06-09T17:51:39.144Z,60.40
2018-06-09T17:54:07.772Z,60.40
2018-06-09T17:56:36.330Z,60.20
2018-06-09T17:59:05.112Z,60.20
2018-06-09T18:01:33.963Z,60.20
2018-06-09T18:04:03.868Z,59.90
2018-06-09T18:06:33.184Z,59.70
2018-06-09T18:09:01.893Z,59.70
2018-06-09T18:11:30.410Z,59.70
2018-06-09T18:13:58.978Z,59.70
2018-06-09T18:16:27.536Z,59.70
2018-06-09T18:21:24.476Z,59.80
2018-06-09T18:23:53.150Z,59.90
2018-06-09T18:26:21.680Z,59.80
2018-06-09T18:28:50.554Z,59.70
2018-06-09T18:31:19.378Z,59.60
2018-06-09T18:33:47.980Z,59.60
2018-06-09T18:36:16.479Z,59.60
2018-06-09T18:38:45.060Z,59.70
2018-06-09T18:41:14.965Z,60.10
2018-06-09T18:43:43.642Z,60.10
2018-06-09T18:48:40.601Z,59.80
2018-06-09T18:51:09.138Z,59.70
2018-06-09T18:53:38.697Z,59.60
2018-06-09T18:56:07.519Z,59.50
2018-06-09T18:58:36.067Z,59.40
2018-06-09T19:01:05.190Z,59.50
2018-06-09T19:03:44.353Z,59.50
2018-06-09T19:06:12.884Z,59.60
2018-06-09T19:08:42.150Z,59.70
2018-06-09T19:11:10.933Z,59.70
2018-06-09T19:13:39.645Z,59.60
2018-06-09T19:16:08.498Z,59.60
2018-06-09T19:18:37.172Z,59.60
2018-06-09T19:21:06.136Z,59.70
2018-06-09T19:23:34.751Z,59.70
2018-06-09T19:26:04.004Z,59.70
2018-06-09T19:28:33.210Z,59.80
2018-06-09T19:31:02.993Z,59.80
2018-06-09T19:33:31.756Z,59.90
2018-06-09T19:36:00.313Z,59.90
2018-06-09T19:38:28.862Z,59.90
2018-06-09T19:40:58.290Z,60.00
2018-06-09T19:43:27.248Z,60.10
2018-06-09T19:45:55.968Z,60.10
2018-06-09T19:48:24.582Z,60.20
2018-06-09T19:53:22.522Z,60.40
2018-06-09T19:55:51.080Z,60.70
2018-06-09T19:58:19.777Z,60.90
2018-06-09T20:00:48.306Z,61.20
2018-06-09T20:03:18.794Z,61.30
2018-06-09T20:05:48.362Z,61.50
2018-06-09T20:08:18.062Z,61.70
2018-06-09T20:10:47.614Z,61.80
2018-06-09T20:13:16.224Z,62.00
2018-06-09T20:15:45.336Z,62.30
2018-06-09T20:18:14.106Z,62.90
2018-06-09T20:20:42.662Z,63.00
2018-06-09T20:23:11.422Z,62.50
2018-06-09T20:25:40.343Z,62.40
2018-06-09T20:28:08.962Z,62.60
2018-06-09T20:30:37.584Z,62.70
2018-06-09T20:33:06.655Z,62.20
2018-06-09T20:35:35.273Z,62.10
2018-06-09T20:38:04.338Z,61.70
2018-06-09T20:40:32.984Z,61.70
2018-06-09T20:43:01.689Z,61.70
2018-06-09T20:45:30.261Z,61.70
2018-06-09T20:47:58.788Z,61.40
2018-06-09T20:50:27.457Z,61.80
2018-06-09T20:52:56.580Z,62.00
2018-06-09T20:55:25.130Z,62.10
2018-06-09T20:57:53.653Z,62.10
2018-06-09T21:00:22.206Z,62.30
2018-06-09T21:02:50.801Z,62.20
2018-06-09T21:05:19.390Z,62.10
2018-06-09T21:07:47.917Z,62.30
